sensor_id;sensor_type;location;lat;lon;timestamp;pressure;altitude;pressure_sealevel;temperature;humidity
50710;BME280;37033;49.994;21.992;2023-04-29T00:00:29;99265.66;;;5.61;57.69
50710;BME280;37033;49.994;21.992;2023-04-29T00:03:17;99267.44;;;5.60;57.68
50710;BME280;37033;49.994;21.992;2023-04-29T00:05:48;99264.34;;;5.56;57.80
50710;BME280;37033;49.994;21.992;2023-04-29T00:08:18;99265.34;;;5.54;57.78
50710;BME280;37033;49.994;21.992;2023-04-29T00:10:49;99261.37;;;5.52;57.75
50710;BME280;37033;49.994;21.992;2023-04-29T00:13:20;99267.80;;;5.49;57.89
50710;BME280;37033;49.994;21.992;2023-04-29T00:15:51;99265.41;;;5.46;58.11
50710;BME280;37033;49.994;21.992;2023-04-29T00:18:21;99267.86;;;5.43;58.53
50710;BME280;37033;49.994;21.992;2023-04-29T00:20:52;99263.14;;;5.39;58.59
50710;BME280;37033;49.994;21.992;2023-04-29T00:23:23;99260.36;;;5.37;58.60
50710;BME280;37033;49.994;21.992;2023-04-29T00:25:53;99257.27;;;5.36;58.98
50710;BME280;37033;49.994;21.992;2023-04-29T00:28:24;99261.75;;;5.35;58.90
50710;BME280;37033;49.994;21.992;2023-04-29T00:30:55;99257.50;;;5.34;59.37
50710;BME280;37033;49.994;21.992;2023-04-29T00:33:26;99260.83;;;5.33;58.97
50710;BME280;37033;49.994;21.992;2023-04-29T00:35:56;99258.09;;;5.31;59.15
50710;BME280;37033;49.994;21.992;2023-04-29T00:38:27;99256.35;;;5.30;59.03
50710;BME280;37033;49.994;21.992;2023-04-29T00:40:58;99253.99;;;5.28;59.25
50710;BME280;37033;49.994;21.992;2023-04-29T00:43:29;99258.48;;;5.26;59.06
50710;BME280;37033;49.994;21.992;2023-04-29T00:45:59;99259.81;;;5.22;59.31
50710;BME280;37033;49.994;21.992;2023-04-29T00:48:30;99257.29;;;5.20;59.41
50710;BME280;37033;49.994;21.992;2023-04-29T00:51:01;99254.55;;;5.16;59.70
50710;BME280;37033;49.994;21.992;2023-04-29T00:53:32;99251.44;;;5.14;59.64
50710;BME280;37033;49.994;21.992;2023-04-29T00:56:04;99252.23;;;5.13;59.85
50710;BME280;37033;49.994;21.992;2023-04-29T00:58:35;99251.36;;;5.12;60.13
50710;BME280;37033;49.994;21.992;2023-04-29T01:01:07;99249.50;;;5.11;60.07
50710;BME280;37033;49.994;21.992;2023-04-29T01:03:38;99246.56;;;5.10;60.02
50710;BME280;37033;49.994;21.992;2023-04-29T01:06:23;99245.73;;;5.08;60.02
50710;BME280;37033;49.994;21.992;2023-04-29T01:09:10;99244.91;;;5.07;60.20
50710;BME280;37033;49.994;21.992;2023-04-29T01:11:52;99246.45;;;5.05;60.36
50710;BME280;37033;49.994;21.992;2023-04-29T01:14:24;99243.79;;;5.02;60.53
50710;BME280;37033;49.994;21.992;2023-04-29T01:17:00;99247.70;;;5.00;60.61
50710;BME280;37033;49.994;21.992;2023-04-29T01:19:43;99248.48;;;4.97;60.52
50710;BME280;37033;49.994;21.992;2023-04-29T01:22:15;99243.98;;;4.95;60.75
50710;BME280;37033;49.994;21.992;2023-04-29T01:24:47;99245.33;;;4.94;60.64
50710;BME280;37033;49.994;21.992;2023-04-29T01:27:28;99244.59;;;4.93;60.87
50710;BME280;37033;49.994;21.992;2023-04-29T01:30:06;99246.55;;;4.92;60.85
50710;BME280;37033;49.994;21.992;2023-04-29T01:32:51;99243.30;;;4.90;60.98
50710;BME280;37033;49.994;21.992;2023-04-29T01:35:35;99245.52;;;4.88;60.84
50710;BME280;37033;49.994;21.992;2023-04-29T01:38:20;99244.72;;;4.85;61.02
50710;BME280;37033;49.994;21.992;2023-04-29T01:41:02;99240.23;;;4.82;60.84
50710;BME280;37033;49.994;21.992;2023-04-29T01:43:37;99237.59;;;4.78;61.13
50710;BME280;37033;49.994;21.992;2023-04-29T01:46:10;99231.59;;;4.73;61.13
50710;BME280;37033;49.994;21.992;2023-04-29T01:48:44;99230.98;;;4.70;61.46
50710;BME280;37033;49.994;21.992;2023-04-29T01:51:15;99233.01;;;4.67;61.37
50710;BME280;37033;49.994;21.992;2023-04-29T01:53:46;99232.83;;;4.66;61.53
50710;BME280;37033;49.994;21.992;2023-04-29T01:56:17;99232.58;;;4.64;61.57
50710;BME280;37033;49.994;21.992;2023-04-29T01:58:48;99229.48;;;4.61;61.49
50710;BME280;37033;49.994;21.992;2023-04-29T02:01:19;99229.09;;;4.60;61.75
50710;BME280;37033;49.994;21.992;2023-04-29T02:03:49;99234.45;;;4.59;61.63
50710;BME280;37033;49.994;21.992;2023-04-29T02:06:20;99234.69;;;4.57;61.77
50710;BME280;37033;49.994;21.992;2023-04-29T02:08:51;99229.97;;;4.56;62.05
50710;BME280;37033;49.994;21.992;2023-04-29T02:11:21;99231.25;;;4.55;61.89
50710;BME280;37033;49.994;21.992;2023-04-29T02:13:52;99229.88;;;4.53;62.15
50710;BME280;37033;49.994;21.992;2023-04-29T02:16:23;99229.88;;;4.53;62.19
50710;BME280;37033;49.994;21.992;2023-04-29T02:18:54;99228.14;;;4.52;62.56
50710;BME280;37033;49.994;21.992;2023-04-29T02:21:24;99229.67;;;4.52;62.64
50710;BME280;37033;49.994;21.992;2023-04-29T02:23:55;99230.75;;;4.52;63.00
50710;BME280;37033;49.994;21.992;2023-04-29T02:26:26;99229.89;;;4.52;62.92
50710;BME280;37033;49.994;21.992;2023-04-29T02:28:56;99226.32;;;4.53;62.94
50710;BME280;37033;49.994;21.992;2023-04-29T02:31:27;99225.95;;;4.53;63.06
50710;BME280;37033;49.994;21.992;2023-04-29T02:33:58;99228.73;;;4.54;63.02
50710;BME280;37033;49.994;21.992;2023-04-29T02:36:29;99225.91;;;4.56;63.14
50710;BME280;37033;49.994;21.992;2023-04-29T02:39:00;99228.27;;;4.57;63.14
50710;BME280;37033;49.994;21.992;2023-04-29T02:41:31;99221.27;;;4.58;62.94
50710;BME280;37033;49.994;21.992;2023-04-29T02:44:02;99223.42;;;4.60;63.21
50710;BME280;37033;49.994;21.992;2023-04-29T02:46:33;99220.81;;;4.61;63.51
50710;BME280;37033;49.994;21.992;2023-04-29T02:49:04;99219.48;;;4.61;63.32
50710;BME280;37033;49.994;21.992;2023-04-29T02:51:35;99218.45;;;4.62;63.57
50710;BME280;37033;49.994;21.992;2023-04-29T02:54:06;99217.89;;;4.62;63.47
50710;BME280;37033;49.994;21.992;2023-04-29T02:56:37;99219.03;;;4.64;63.67
50710;BME280;37033;49.994;21.992;2023-04-29T02:59:07;99214.83;;;4.65;63.84
50710;BME280;37033;49.994;21.992;2023-04-29T03:01:38;99215.19;;;4.66;63.66
50710;BME280;37033;49.994;21.992;2023-04-29T03:04:09;99216.23;;;4.68;63.73
50710;BME280;37033;49.994;21.992;2023-04-29T03:06:40;99213.15;;;4.69;63.51
50710;BME280;37033;49.994;21.992;2023-04-29T03:09:11;99206.16;;;4.71;63.68
50710;BME280;37033;49.994;21.992;2023-04-29T03:11:42;99206.61;;;4.71;63.77
50710;BME280;37033;49.994;21.992;2023-04-29T03:14:13;99206.10;;;4.73;63.99
50710;BME280;37033;49.994;21.992;2023-04-29T03:16:44;99201.84;;;4.73;63.95
50710;BME280;37033;49.994;21.992;2023-04-29T03:19:14;99201.67;;;4.74;63.88
50710;BME280;37033;49.994;21.992;2023-04-29T03:21:45;99199.32;;;4.76;64.12
50710;BME280;37033;49.994;21.992;2023-04-29T03:24:16;99202.55;;;4.77;64.11
50710;BME280;37033;49.994;21.992;2023-04-29T03:26:47;99199.81;;;4.78;64.05
50710;BME280;37033;49.994;21.992;2023-04-29T03:29:17;99198.08;;;4.79;64.20
50710;BME280;37033;49.994;21.992;2023-04-29T03:31:48;99197.04;;;4.80;64.37
50710;BME280;37033;49.994;21.992;2023-04-29T03:34:19;99195.83;;;4.81;64.45
50710;BME280;37033;49.994;21.992;2023-04-29T03:36:50;99197.03;;;4.81;64.48
50710;BME280;37033;49.994;21.992;2023-04-29T03:39:21;99200.59;;;4.81;64.55
50710;BME280;37033;49.994;21.992;2023-04-29T03:41:52;99202.54;;;4.81;64.48
50710;BME280;37033;49.994;21.992;2023-04-29T03:44:22;99201.76;;;4.82;64.62
50710;BME280;37033;49.994;21.992;2023-04-29T03:46:53;99200.59;;;4.82;64.49
50710;BME280;37033;49.994;21.992;2023-04-29T03:49:24;99203.08;;;4.83;64.64
50710;BME280;37033;49.994;21.992;2023-04-29T03:51:54;99199.73;;;4.82;64.51
50710;BME280;37033;49.994;21.992;2023-04-29T03:54:25;99194.58;;;4.82;64.60
50710;BME280;37033;49.994;21.992;2023-04-29T03:56:56;99199.44;;;4.82;64.47
50710;BME280;37033;49.994;21.992;2023-04-29T03:59:27;99197.23;;;4.82;64.56
50710;BME280;37033;49.994;21.992;2023-04-29T04:01:57;99199.31;;;4.82;64.56
50710;BME280;37033;49.994;21.992;2023-04-29T04:04:28;99194.59;;;4.80;64.50
50710;BME280;37033;49.994;21.992;2023-04-29T04:06:59;99194.75;;;4.81;64.58
50710;BME280;37033;49.994;21.992;2023-04-29T04:09:29;99201.55;;;4.82;64.65
50710;BME280;37033;49.994;21.992;2023-04-29T04:12:01;99200.84;;;4.83;64.60
50710;BME280;37033;49.994;21.992;2023-04-29T04:14:32;99201.84;;;4.87;64.67
50710;BME280;37033;49.994;21.992;2023-04-29T04:17:03;99204.52;;;4.90;64.69
50710;BME280;37033;49.994;21.992;2023-04-29T04:19:33;99209.23;;;4.94;64.89
50710;BME280;37033;49.994;21.992;2023-04-29T04:22:04;99206.41;;;4.99;65.03
50710;BME280;37033;49.994;21.992;2023-04-29T04:24:35;99208.44;;;5.04;64.74
50710;BME280;37033;49.994;21.992;2023-04-29T04:27:06;99206.90;;;5.09;64.76
50710;BME280;37033;49.994;21.992;2023-04-29T04:29:37;99206.94;;;5.14;64.83
50710;BME280;37033;49.994;21.992;2023-04-29T04:32:07;99209.73;;;5.18;64.84
50710;BME280;37033;49.994;21.992;2023-04-29T04:34:38;99207.45;;;5.22;64.82
50710;BME280;37033;49.994;21.992;2023-04-29T04:37:09;99208.52;;;5.26;65.01
50710;BME280;37033;49.994;21.992;2023-04-29T04:39:40;99208.83;;;5.30;64.89
50710;BME280;37033;49.994;21.992;2023-04-29T04:42:11;99203.60;;;5.34;65.02
50710;BME280;37033;49.994;21.992;2023-04-29T04:44:41;99197.58;;;5.38;64.82
50710;BME280;37033;49.994;21.992;2023-04-29T04:47:12;99196.81;;;5.42;64.91
50710;BME280;37033;49.994;21.992;2023-04-29T04:49:43;99194.99;;;5.44;64.91
50710;BME280;37033;49.994;21.992;2023-04-29T04:52:13;99198.66;;;5.49;64.86
50710;BME280;37033;49.994;21.992;2023-04-29T04:54:46;99193.59;;;5.52;64.94
50710;BME280;37033;49.994;21.992;2023-04-29T04:57:17;99200.33;;;5.55;64.87
50710;BME280;37033;49.994;21.992;2023-04-29T04:59:48;99195.17;;;5.59;64.95
50710;BME280;37033;49.994;21.992;2023-04-29T05:02:18;99192.92;;;5.62;64.56
50710;BME280;37033;49.994;21.992;2023-04-29T05:04:49;99194.40;;;5.65;64.63
50710;BME280;37033;49.994;21.992;2023-04-29T05:07:20;99192.14;;;5.70;64.75
50710;BME280;37033;49.994;21.992;2023-04-29T05:09:50;99189.55;;;5.74;64.86
50710;BME280;37033;49.994;21.992;2023-04-29T05:12:21;99192.55;;;5.80;64.64
50710;BME280;37033;49.994;21.992;2023-04-29T05:14:54;99190.85;;;5.88;64.72
50710;BME280;37033;49.994;21.992;2023-04-29T05:17:25;99189.92;;;5.98;64.75
50710;BME280;37033;49.994;21.992;2023-04-29T05:19:56;99190.57;;;6.07;64.85
50710;BME280;37033;49.994;21.992;2023-04-29T05:22:26;99194.19;;;6.19;64.61
50710;BME280;37033;49.994;21.992;2023-04-29T05:24:57;99191.89;;;6.30;64.32
50710;BME280;37033;49.994;21.992;2023-04-29T05:27:31;99196.82;;;6.41;64.45
50710;BME280;37033;49.994;21.992;2023-04-29T05:30:01;99196.95;;;6.51;64.33
50710;BME280;37033;49.994;21.992;2023-04-29T05:32:32;99197.74;;;6.62;64.22
50710;BME280;37033;49.994;21.992;2023-04-29T05:35:03;99203.67;;;6.73;64.05
50710;BME280;37033;49.994;21.992;2023-04-29T05:37:34;99204.08;;;6.83;63.80
50710;BME280;37033;49.994;21.992;2023-04-29T05:40:07;99209.27;;;6.93;63.57
50710;BME280;37033;49.994;21.992;2023-04-29T05:42:38;99205.95;;;7.05;63.73
50710;BME280;37033;49.994;21.992;2023-04-29T05:45:10;99205.19;;;7.19;63.59
50710;BME280;37033;49.994;21.992;2023-04-29T05:47:41;99205.27;;;7.32;63.10
50710;BME280;37033;49.994;21.992;2023-04-29T05:50:12;99207.33;;;7.45;62.97
50710;BME280;37033;49.994;21.992;2023-04-29T05:52:43;99208.42;;;7.57;62.78
50710;BME280;37033;49.994;21.992;2023-04-29T05:55:13;99205.65;;;7.67;62.44
50710;BME280;37033;49.994;21.992;2023-04-29T05:57:44;99202.03;;;7.80;62.16
50710;BME280;37033;49.994;21.992;2023-04-29T06:00:15;99201.20;;;7.89;61.87
50710;BME280;37033;49.994;21.992;2023-04-29T06:02:46;99202.30;;;7.97;61.84
50710;BME280;37033;49.994;21.992;2023-04-29T06:05:17;99206.28;;;8.04;61.63
50710;BME280;37033;49.994;21.992;2023-04-29T06:07:47;99201.48;;;8.13;61.55
50710;BME280;37033;49.994;21.992;2023-04-29T06:10:18;99195.79;;;8.19;61.56
50710;BME280;37033;49.994;21.992;2023-04-29T06:12:49;99203.21;;;8.27;61.42
50710;BME280;37033;49.994;21.992;2023-04-29T06:15:20;99196.20;;;8.37;61.49
50710;BME280;37033;49.994;21.992;2023-04-29T06:17:51;99197.25;;;8.45;61.32
50710;BME280;37033;49.994;21.992;2023-04-29T06:20:21;99193.15;;;8.55;61.37
50710;BME280;37033;49.994;21.992;2023-04-29T06:22:52;99195.10;;;8.66;60.91
50710;BME280;37033;49.994;21.992;2023-04-29T06:25:23;99198.30;;;8.75;60.70
50710;BME280;37033;49.994;21.992;2023-04-29T06:27:53;99196.84;;;8.86;60.55
50710;BME280;37033;49.994;21.992;2023-04-29T06:30:26;99195.44;;;9.01;60.38
50710;BME280;37033;49.994;21.992;2023-04-29T06:32:57;99196.61;;;9.16;60.21
50710;BME280;37033;49.994;21.992;2023-04-29T06:35:28;99190.86;;;9.31;60.26
50710;BME280;37033;49.994;21.992;2023-04-29T06:37:58;99191.60;;;9.49;60.01
50710;BME280;37033;49.994;21.992;2023-04-29T06:40:29;99189.59;;;9.66;59.86
50710;BME280;37033;49.994;21.992;2023-04-29T06:43:00;99184.98;;;9.83;59.53
50710;BME280;37033;49.994;21.992;2023-04-29T06:45:32;99187.38;;;9.98;59.12
50710;BME280;37033;49.994;21.992;2023-04-29T06:48:03;99186.70;;;10.14;58.87
50710;BME280;37033;49.994;21.992;2023-04-29T06:50:34;99185.77;;;10.31;58.71
50710;BME280;37033;49.994;21.992;2023-04-29T06:53:05;99188.53;;;10.45;58.74
50710;BME280;37033;49.994;21.992;2023-04-29T06:55:36;99184.11;;;10.61;58.76
50710;BME280;37033;49.994;21.992;2023-04-29T06:58:07;99189.23;;;10.77;58.40
50710;BME280;37033;49.994;21.992;2023-04-29T07:00:38;99187.05;;;10.91;58.40
50710;BME280;37033;49.994;21.992;2023-04-29T07:03:09;99187.89;;;11.04;58.11
50710;BME280;37033;49.994;21.992;2023-04-29T07:05:40;99190.09;;;11.20;57.90
50710;BME280;37033;49.994;21.992;2023-04-29T07:08:14;99186.67;;;11.38;57.49
50710;BME280;37033;49.994;21.992;2023-04-29T07:10:48;99182.48;;;11.54;57.15
50710;BME280;37033;49.994;21.992;2023-04-29T07:13:22;99180.09;;;11.72;56.57
50710;BME280;37033;49.994;21.992;2023-04-29T07:15:53;99177.91;;;11.86;56.09
50710;BME280;37033;49.994;21.992;2023-04-29T07:18:24;99176.23;;;11.99;55.74
50710;BME280;37033;49.994;21.992;2023-04-29T07:20:54;99176.29;;;12.15;55.65
50710;BME280;37033;49.994;21.992;2023-04-29T07:23:29;99178.64;;;12.38;55.52
50710;BME280;37033;49.994;21.992;2023-04-29T07:26:09;99172.82;;;12.57;54.89
50710;BME280;37033;49.994;21.992;2023-04-29T07:28:40;99175.43;;;12.71;53.41
50710;BME280;37033;49.994;21.992;2023-04-29T07:31:11;99169.36;;;12.75;53.57
50710;BME280;37033;49.994;21.992;2023-04-29T07:33:43;99175.15;;;12.78;53.72
50710;BME280;37033;49.994;21.992;2023-04-29T07:36:14;99170.14;;;12.84;54.08
50710;BME280;37033;49.994;21.992;2023-04-29T07:38:45;99172.19;;;12.90;53.18
50710;BME280;37033;49.994;21.992;2023-04-29T07:41:16;99171.61;;;12.94;53.28
50710;BME280;37033;49.994;21.992;2023-04-29T07:43:46;99170.23;;;13.01;53.40
50710;BME280;37033;49.994;21.992;2023-04-29T07:46:17;99168.02;;;13.10;53.18
50710;BME280;37033;49.994;21.992;2023-04-29T07:48:48;99170.12;;;13.15;52.61
50710;BME280;37033;49.994;21.992;2023-04-29T07:51:19;99174.75;;;13.23;53.02
50710;BME280;37033;49.994;21.992;2023-04-29T07:53:50;99169.05;;;13.33;52.69
50710;BME280;37033;49.994;21.992;2023-04-29T07:56:20;99167.67;;;13.44;52.46
50710;BME280;37033;49.994;21.992;2023-04-29T07:58:51;99167.89;;;13.54;52.28
50710;BME280;37033;49.994;21.992;2023-04-29T08:01:22;99167.29;;;13.66;52.21
50710;BME280;37033;49.994;21.992;2023-04-29T08:03:53;99167.29;;;13.80;52.24
50710;BME280;37033;49.994;21.992;2023-04-29T08:06:23;99170.95;;;13.99;52.12
50710;BME280;37033;49.994;21.992;2023-04-29T08:08:54;99163.45;;;14.18;52.19
50710;BME280;37033;49.994;21.992;2023-04-29T08:11:25;99167.19;;;14.41;51.90
50710;BME280;37033;49.994;21.992;2023-04-29T08:13:56;99166.84;;;14.66;51.49
50710;BME280;37033;49.994;21.992;2023-04-29T08:16:28;99165.41;;;14.89;50.89
50710;BME280;37033;49.994;21.992;2023-04-29T08:18:59;99162.33;;;15.10;49.54
50710;BME280;37033;49.994;21.992;2023-04-29T08:21:30;99163.75;;;15.27;49.10
50710;BME280;37033;49.994;21.992;2023-04-29T08:24:02;99164.65;;;15.41;48.09
50710;BME280;37033;49.994;21.992;2023-04-29T08:26:34;99161.76;;;15.53;47.73
50710;BME280;37033;49.994;21.992;2023-04-29T08:29:04;99160.55;;;15.67;47.91
50710;BME280;37033;49.994;21.992;2023-04-29T08:31:35;99160.13;;;15.85;47.78
50710;BME280;37033;49.994;21.992;2023-04-29T08:34:05;99161.81;;;16.09;47.58
50710;BME280;37033;49.994;21.992;2023-04-29T08:36:36;99155.04;;;16.28;47.19
50710;BME280;37033;49.994;21.992;2023-04-29T08:39:07;99161.39;;;16.39;47.01
50710;BME280;37033;49.994;21.992;2023-04-29T08:41:38;99161.40;;;16.45;46.73
50710;BME280;37033;49.994;21.992;2023-04-29T08:44:09;99165.63;;;16.51;46.76
50710;BME280;37033;49.994;21.992;2023-04-29T08:46:40;99168.17;;;16.55;46.26
50710;BME280;37033;49.994;21.992;2023-04-29T08:49:12;99165.59;;;16.56;45.65
50710;BME280;37033;49.994;21.992;2023-04-29T08:51:43;99166.05;;;16.46;45.65
50710;BME280;37033;49.994;21.992;2023-04-29T08:54:13;99169.55;;;16.40;45.69
50710;BME280;37033;49.994;21.992;2023-04-29T08:56:45;99166.71;;;16.36;45.79
50710;BME280;37033;49.994;21.992;2023-04-29T08:59:17;99166.77;;;16.37;45.98
50710;BME280;37033;49.994;21.992;2023-04-29T09:01:51;99166.02;;;16.34;45.94
50710;BME280;37033;49.994;21.992;2023-04-29T09:04:31;99162.26;;;16.32;45.80
50710;BME280;37033;49.994;21.992;2023-04-29T09:07:07;99164.21;;;16.27;45.77
50710;BME280;37033;49.994;21.992;2023-04-29T09:09:41;99160.11;;;16.25;46.02
50710;BME280;37033;49.994;21.992;2023-04-29T09:12:12;99159.10;;;16.27;45.34
50710;BME280;37033;49.994;21.992;2023-04-29T09:14:43;99159.82;;;16.27;45.75
50710;BME280;37033;49.994;21.992;2023-04-29T09:17:14;99158.30;;;16.30;45.61
50710;BME280;37033;49.994;21.992;2023-04-29T09:19:46;99159.88;;;16.34;45.48
50710;BME280;37033;49.994;21.992;2023-04-29T09:22:17;99158.23;;;16.35;44.87
50710;BME280;37033;49.994;21.992;2023-04-29T09:24:47;99160.11;;;16.33;44.35
50710;BME280;37033;49.994;21.992;2023-04-29T09:27:27;99162.21;;;16.29;45.00
50710;BME280;37033;49.994;21.992;2023-04-29T09:30:05;99159.88;;;16.34;45.30
50710;BME280;37033;49.994;21.992;2023-04-29T09:32:36;99156.88;;;16.41;45.01
50710;BME280;37033;49.994;21.992;2023-04-29T09:35:22;99151.71;;;16.48;44.87
50710;BME280;37033;49.994;21.992;2023-04-29T09:38:09;99150.23;;;16.69;44.72
50710;BME280;37033;49.994;21.992;2023-04-29T09:40:41;99148.64;;;16.84;44.33
50710;BME280;37033;49.994;21.992;2023-04-29T09:43:16;99145.89;;;17.07;44.57
50710;BME280;37033;49.994;21.992;2023-04-29T09:45:47;99145.73;;;17.27;43.84
50710;BME280;37033;49.994;21.992;2023-04-29T09:48:18;99140.38;;;17.43;44.01
50710;BME280;37033;49.994;21.992;2023-04-29T09:51:00;99137.55;;;17.60;43.76
50710;BME280;37033;49.994;21.992;2023-04-29T09:53:31;99132.52;;;17.70;42.94
50710;BME280;37033;49.994;21.992;2023-04-29T09:56:06;99126.91;;;17.79;42.55
50710;BME280;37033;49.994;21.992;2023-04-29T09:58:37;99125.20;;;17.84;42.57
50710;BME280;37033;49.994;21.992;2023-04-29T10:01:09;99117.59;;;17.91;42.82
50710;BME280;37033;49.994;21.992;2023-04-29T10:03:42;99119.33;;;18.04;42.95
50710;BME280;37033;49.994;21.992;2023-04-29T10:06:13;99112.36;;;18.17;42.65
50710;BME280;37033;49.994;21.992;2023-04-29T10:08:47;99112.59;;;18.31;42.29
50710;BME280;37033;49.994;21.992;2023-04-29T10:11:18;99111.20;;;18.46;41.78
50710;BME280;37033;49.994;21.992;2023-04-29T10:13:51;99109.84;;;18.54;41.34
50710;BME280;37033;49.994;21.992;2023-04-29T10:16:28;99110.15;;;18.65;41.28
50710;BME280;37033;49.994;21.992;2023-04-29T10:19:02;99106.52;;;18.71;40.70
50710;BME280;37033;49.994;21.992;2023-04-29T10:21:35;99102.23;;;18.78;40.87
50710;BME280;37033;49.994;21.992;2023-04-29T10:24:06;99102.34;;;18.98;41.38
50710;BME280;37033;49.994;21.992;2023-04-29T10:26:42;99101.08;;;19.20;40.82
50710;BME280;37033;49.994;21.992;2023-04-29T10:29:14;99102.23;;;19.31;40.25
50710;BME280;37033;49.994;21.992;2023-04-29T10:31:52;99098.98;;;19.37;40.01
50710;BME280;37033;49.994;21.992;2023-04-29T10:34:24;99098.05;;;19.40;39.77
50710;BME280;37033;49.994;21.992;2023-04-29T10:36:56;99101.04;;;19.41;39.42
50710;BME280;37033;49.994;21.992;2023-04-29T10:39:41;99099.94;;;19.33;39.70
50710;BME280;37033;49.994;21.992;2023-04-29T10:42:20;99092.73;;;19.41;39.49
50710;BME280;37033;49.994;21.992;2023-04-29T10:45:18;99090.31;;;19.37;39.37
50710;BME280;37033;49.994;21.992;2023-04-29T10:48:10;99085.60;;;19.44;39.78
50710;BME280;37033;49.994;21.992;2023-04-29T10:51:02;99082.66;;;19.56;39.48
50710;BME280;37033;49.994;21.992;2023-04-29T10:53:34;99081.20;;;19.65;38.83
50710;BME280;37033;49.994;21.992;2023-04-29T10:56:09;99073.95;;;19.68;38.91
50710;BME280;37033;49.994;21.992;2023-04-29T10:58:43;99076.77;;;19.75;38.43
50710;BME280;37033;49.994;21.992;2023-04-29T11:01:16;99071.16;;;19.79;38.47
50710;BME280;37033;49.994;21.992;2023-04-29T11:03:49;99069.41;;;19.78;38.21
50710;BME280;37033;49.994;21.992;2023-04-29T11:06:25;99068.33;;;19.76;38.33
50710;BME280;37033;49.994;21.992;2023-04-29T11:09:02;99065.82;;;19.88;38.69
50710;BME280;37033;49.994;21.992;2023-04-29T11:11:44;99061.69;;;19.97;38.00
50710;BME280;37033;49.994;21.992;2023-04-29T11:14:20;99058.66;;;19.92;37.60
50710;BME280;37033;49.994;21.992;2023-04-29T11:16:55;99063.00;;;19.95;38.00
50710;BME280;37033;49.994;21.992;2023-04-29T11:19:31;99060.51;;;19.96;37.57
50710;BME280;37033;49.994;21.992;2023-04-29T11:22:10;99053.94;;;19.96;37.97
50710;BME280;37033;49.994;21.992;2023-04-29T11:24:52;99058.55;;;19.99;37.66
50710;BME280;37033;49.994;21.992;2023-04-29T11:27:30;99056.39;;;19.92;37.89
50710;BME280;37033;49.994;21.992;2023-04-29T11:30:06;99057.71;;;19.92;37.53
50710;BME280;37033;49.994;21.992;2023-04-29T11:32:38;99056.05;;;19.88;37.35
50710;BME280;37033;49.994;21.992;2023-04-29T11:35:12;99060.44;;;19.81;37.64
50710;BME280;37033;49.994;21.992;2023-04-29T11:37:44;99059.98;;;19.79;37.73
50710;BME280;37033;49.994;21.992;2023-04-29T11:40:15;99059.30;;;19.88;37.84
50710;BME280;37033;49.994;21.992;2023-04-29T11:42:47;99055.31;;;19.91;37.68
50710;BME280;37033;49.994;21.992;2023-04-29T11:45:18;99054.40;;;19.88;36.90
50710;BME280;37033;49.994;21.992;2023-04-29T11:47:52;99053.10;;;19.77;36.76
50710;BME280;37033;49.994;21.992;2023-04-29T11:50:23;99055.72;;;19.65;36.21
50710;BME280;37033;49.994;21.992;2023-04-29T11:52:58;99052.98;;;19.49;36.13
50710;BME280;37033;49.994;21.992;2023-04-29T11:55:30;99049.39;;;19.36;36.79
50710;BME280;37033;49.994;21.992;2023-04-29T11:58:04;99049.63;;;19.33;37.37
50710;BME280;37033;49.994;21.992;2023-04-29T12:00:37;99047.40;;;19.41;37.14
50710;BME280;37033;49.994;21.992;2023-04-29T12:03:15;99041.27;;;19.47;37.58
50710;BME280;37033;49.994;21.992;2023-04-29T12:05:48;99049.08;;;19.66;38.06
50710;BME280;37033;49.994;21.992;2023-04-29T12:08:21;99044.11;;;19.71;37.14
50710;BME280;37033;49.994;21.992;2023-04-29T12:10:53;99045.17;;;19.61;36.97
50710;BME280;37033;49.994;21.992;2023-04-29T12:13:26;99044.45;;;19.47;36.99
50710;BME280;37033;49.994;21.992;2023-04-29T12:15:58;99050.40;;;19.30;36.63
50710;BME280;37033;49.994;21.992;2023-04-29T12:18:32;99054.52;;;19.15;36.91
50710;BME280;37033;49.994;21.992;2023-04-29T12:21:05;99053.36;;;19.08;37.34
50710;BME280;37033;49.994;21.992;2023-04-29T12:23:36;99048.93;;;19.21;37.33
50710;BME280;37033;49.994;21.992;2023-04-29T12:26:07;99044.13;;;19.32;37.45
50710;BME280;37033;49.994;21.992;2023-04-29T12:28:40;99040.96;;;19.43;37.38
50710;BME280;37033;49.994;21.992;2023-04-29T12:31:13;99040.86;;;19.52;37.62
50710;BME280;37033;49.994;21.992;2023-04-29T12:33:47;99034.65;;;19.76;37.41
50710;BME280;37033;49.994;21.992;2023-04-29T12:36:18;99035.66;;;19.80;37.29
50710;BME280;37033;49.994;21.992;2023-04-29T12:38:49;99031.23;;;19.78;37.27
50710;BME280;37033;49.994;21.992;2023-04-29T12:41:36;99023.43;;;19.82;37.34
50710;BME280;37033;49.994;21.992;2023-04-29T12:44:10;99021.23;;;19.91;37.56
50710;BME280;37033;49.994;21.992;2023-04-29T12:46:41;99023.81;;;20.12;38.04
50710;BME280;37033;49.994;21.992;2023-04-29T12:49:12;99021.27;;;20.34;37.39
50710;BME280;37033;49.994;21.992;2023-04-29T12:51:47;99018.08;;;20.38;37.01
50710;BME280;37033;49.994;21.992;2023-04-29T12:54:18;99021.68;;;20.26;36.73
50710;BME280;37033;49.994;21.992;2023-04-29T12:56:49;99014.36;;;20.21;37.20
50710;BME280;37033;49.994;21.992;2023-04-29T12:59:22;99016.73;;;20.36;37.07
50710;BME280;37033;49.994;21.992;2023-04-29T13:01:55;99012.92;;;20.34;36.38
50710;BME280;37033;49.994;21.992;2023-04-29T13:04:29;99014.17;;;20.26;36.55
50710;BME280;37033;49.994;21.992;2023-04-29T13:07:03;99015.77;;;20.22;36.86
50710;BME280;37033;49.994;21.992;2023-04-29T13:09:34;99011.73;;;20.16;35.87
50710;BME280;37033;49.994;21.992;2023-04-29T13:12:06;99011.93;;;19.97;35.32
50710;BME280;37033;49.994;21.992;2023-04-29T13:14:39;99011.12;;;19.77;35.08
50710;BME280;37033;49.994;21.992;2023-04-29T13:17:10;99008.25;;;19.62;35.44
50710;BME280;37033;49.994;21.992;2023-04-29T13:19:41;99016.39;;;19.57;35.72
50710;BME280;37033;49.994;21.992;2023-04-29T13:22:13;99014.05;;;19.59;35.88